sensor_id;sensor_type;location;lat;lon;timestamp;noise_LAeq;noise_LA_min;noise_LA_max;noise_LA01;noise_LA95
61249;Laerm;47119;49.130;9.218;2023-04-25T00:00:08;44.03;39.50;56.71;;
61249;Laerm;47119;49.130;9.218;2023-04-25T00:02:39;44.30;39.50;59.75;;
61249;Laerm;47119;49.130;9.218;2023-04-25T00:05:09;46.25;40.18;59.05;;
61249;Laerm;47119;49.130;9.218;2023-04-25T00:07:39;47.19;44.47;59.30;;
61249;Laerm;47119;49.130;9.218;2023-04-25T00:10:10;47.27;39.81;61.68;;
61249;Laerm;47119;49.130;9.218;2023-04-25T00:12:40;47.37;44.52;59.22;;
61249;Laerm;47119;49.130;9.218;2023-04-25T00:15:08;48.48;44.32;62.97;;
61249;Laerm;47119;49.130;9.218;2023-04-25T00:17:38;47.23;38.15;53.95;;
61249;Laerm;47119;49.130;9.218;2023-04-25T00:20:06;37.24;29.91;47.81;;
61249;Laerm;47119;49.130;9.218;2023-04-25T00:22:39;34.36;29.46;42.88;;
61249;Laerm;47119;49.130;9.218;2023-04-25T00:25:08;34.17;29.91;41.21;;
61249;Laerm;47119;49.130;9.218;2023-04-25T00:27:36;47.38;31.49;63.74;;
61249;Laerm;47119;49.130;9.218;2023-04-25T00:30:08;35.35;30.97;45.15;;
61249;Laerm;47119;49.130;9.218;2023-04-25T00:32:35;34.36;30.08;51.64;;
61249;Laerm;47119;49.130;9.218;2023-04-25T00:35:05;39.03;31.01;50.45;;
61249;Laerm;47119;49.130;9.218;2023-04-25T00:37:32;35.35;29.53;46.33;;
61249;Laerm;47119;49.130;9.218;2023-04-25T00:40:02;35.68;29.18;45.83;;
61249;Laerm;47119;49.130;9.218;2023-04-25T00:42:32;48.00;30.79;68.75;;
61249;Laerm;47119;49.130;9.218;2023-04-25T00:45:07;35.53;29.75;46.41;;
61249;Laerm;47119;49.130;9.218;2023-04-25T00:47:36;34.26;30.61;41.54;;
61249;Laerm;47119;49.130;9.218;2023-04-25T00:50:07;44.83;30.07;61.03;;
61249;Laerm;47119;49.130;9.218;2023-04-25T00:52:38;35.81;30.42;48.56;;
61249;Laerm;47119;49.130;9.218;2023-04-25T00:55:10;39.02;30.68;51.29;;
61249;Laerm;47119;49.130;9.218;2023-04-25T00:57:38;35.56;29.69;44.76;;
61249;Laerm;47119;49.130;9.218;2023-04-25T01:00:13;47.09;30.07;65.95;;
61249;Laerm;47119;49.130;9.218;2023-04-25T01:02:41;36.76;29.46;44.88;;
61249;Laerm;47119;49.130;9.218;2023-04-25T01:05:08;37.53;30.61;50.80;;
61249;Laerm;47119;49.130;9.218;2023-04-25T01:07:36;37.38;30.07;51.12;;
61249;Laerm;47119;49.130;9.218;2023-04-25T01:10:08;34.87;29.14;48.91;;
61249;Laerm;47119;49.130;9.218;2023-04-25T01:12:38;36.47;29.38;46.70;;
61249;Laerm;47119;49.130;9.218;2023-04-25T01:15:06;37.60;30.42;47.71;;
61249;Laerm;47119;49.130;9.218;2023-04-25T01:17:35;42.39;30.07;61.61;;
61249;Laerm;47119;49.130;9.218;2023-04-25T01:20:06;35.29;30.75;46.15;;
61249;Laerm;47119;49.130;9.218;2023-04-25T01:22:36;37.88;31.49;53.33;;
61249;Laerm;47119;49.130;9.218;2023-04-25T01:25:07;37.34;30.88;55.50;;
61249;Laerm;47119;49.130;9.218;2023-04-25T01:27:38;43.18;31.11;58.82;;
61249;Laerm;47119;49.130;9.218;2023-04-25T01:30:08;38.70;31.59;51.77;;
61249;Laerm;47119;49.130;9.218;2023-04-25T01:32:36;47.06;32.29;60.22;;
61249;Laerm;47119;49.130;9.218;2023-04-25T01:35:05;46.99;32.69;62.63;;
61249;Laerm;47119;49.130;9.218;2023-04-25T01:37:36;43.61;31.23;58.04;;
61249;Laerm;47119;49.130;9.218;2023-04-25T01:40:07;42.23;31.40;56.94;;
61249;Laerm;47119;49.130;9.218;2023-04-25T01:42:38;42.15;31.13;57.47;;
61249;Laerm;47119;49.130;9.218;2023-04-25T01:45:09;42.59;31.35;56.19;;
61249;Laerm;47119;49.130;9.218;2023-04-25T01:47:40;42.35;31.40;56.47;;
61249;Laerm;47119;49.130;9.218;2023-04-25T01:50:11;45.71;32.11;59.28;;
61249;Laerm;47119;49.130;9.218;2023-04-25T01:52:45;47.71;30.35;61.55;;
61249;Laerm;47119;49.130;9.218;2023-04-25T01:55:15;42.66;30.74;55.73;;
61249;Laerm;47119;49.130;9.218;2023-04-25T01:57:52;44.80;30.19;60.78;;
61249;Laerm;47119;49.130;9.218;2023-04-25T02:00:23;40.53;30.05;53.00;;
61249;Laerm;47119;49.130;9.218;2023-04-25T02:02:53;44.14;31.02;60.69;;
61249;Laerm;47119;49.130;9.218;2023-04-25T02:05:27;43.34;31.12;57.15;;
61249;Laerm;47119;49.130;9.218;2023-04-25T02:07:58;38.59;29.91;49.65;;
61249;Laerm;47119;49.130;9.218;2023-04-25T02:10:27;39.16;29.55;56.69;;
61249;Laerm;47119;49.130;9.218;2023-04-25T02:13:05;45.87;30.34;62.57;;
61249;Laerm;47119;49.130;9.218;2023-04-25T02:15:41;46.58;31.10;59.11;;
61249;Laerm;47119;49.130;9.218;2023-04-25T02:18:14;44.99;31.23;60.34;;
61249;Laerm;47119;49.130;9.218;2023-04-25T02:20:45;41.40;30.07;53.44;;
61249;Laerm;47119;49.130;9.218;2023-04-25T02:23:14;45.10;30.69;57.92;;
61249;Laerm;47119;49.130;9.218;2023-04-25T02:25:46;45.19;30.42;59.30;;
61249;Laerm;47119;49.130;9.218;2023-04-25T02:28:15;51.70;32.28;69.27;;
61249;Laerm;47119;49.130;9.218;2023-04-25T02:30:45;48.43;31.65;65.25;;
61249;Laerm;47119;49.130;9.218;2023-04-25T02:33:11;40.01;32.33;55.15;;
61249;Laerm;47119;49.130;9.218;2023-04-25T02:35:43;43.49;31.95;59.98;;
61249;Laerm;47119;49.130;9.218;2023-04-25T02:38:14;44.14;31.44;59.36;;
61249;Laerm;47119;49.130;9.218;2023-04-25T02:40:43;47.90;30.25;60.29;;
61249;Laerm;47119;49.130;9.218;2023-04-25T02:43:10;46.78;32.17;58.90;;
61249;Laerm;47119;49.130;9.218;2023-04-25T02:45:37;46.84;33.39;59.16;;
61249;Laerm;47119;49.130;9.218;2023-04-25T02:48:06;45.78;33.11;57.42;;
61249;Laerm;47119;49.130;9.218;2023-04-25T02:50:35;47.97;33.55;67.12;;
61249;Laerm;47119;49.130;9.218;2023-04-25T02:53:05;44.95;35.08;54.94;;
61249;Laerm;47119;49.130;9.218;2023-04-25T02:55:38;43.14;32.57;58.93;;
61249;Laerm;47119;49.130;9.218;2023-04-25T02:58:08;48.27;33.63;64.67;;
61249;Laerm;47119;49.130;9.218;2023-04-25T03:00:53;48.41;34.10;61.50;;
61249;Laerm;47119;49.130;9.218;2023-04-25T03:03:22;42.29;32.29;58.75;;
61249;Laerm;47119;49.130;9.218;2023-04-25T03:05:52;42.52;32.89;52.58;;
61249;Laerm;47119;49.130;9.218;2023-04-25T03:08:26;48.04;33.17;65.91;;
61249;Laerm;47119;49.130;9.218;2023-04-25T03:11:02;47.35;33.89;62.75;;
61249;Laerm;47119;49.130;9.218;2023-04-25T03:13:31;49.66;37.18;67.42;;
61249;Laerm;47119;49.130;9.218;2023-04-25T03:16:00;47.00;35.28;60.19;;
61249;Laerm;47119;49.130;9.218;2023-04-25T03:18:32;44.10;34.07;58.53;;
61249;Laerm;47119;49.130;9.218;2023-04-25T03:21:01;47.10;36.65;60.55;;
61249;Laerm;47119;49.130;9.218;2023-04-25T03:23:31;50.44;33.24;68.35;;
61249;Laerm;47119;49.130;9.218;2023-04-25T03:25:58;48.39;37.50;60.86;;
61249;Laerm;47119;49.130;9.218;2023-04-25T03:28:26;49.28;33.61;62.69;;
61249;Laerm;47119;49.130;9.218;2023-04-25T03:30:55;46.62;35.78;59.23;;
61249;Laerm;47119;49.130;9.218;2023-04-25T03:33:26;45.77;34.60;58.55;;
61249;Laerm;47119;49.130;9.218;2023-04-25T03:35:57;49.46;38.44;63.61;;
61249;Laerm;47119;49.130;9.218;2023-04-25T03:38:24;51.29;37.83;66.42;;
61249;Laerm;47119;49.130;9.218;2023-04-25T03:40:51;50.46;38.55;65.78;;
61249;Laerm;47119;49.130;9.218;2023-04-25T03:43:40;45.48;35.07;58.73;;
61249;Laerm;47119;49.130;9.218;2023-04-25T03:46:13;52.82;37.03;66.14;;
61249;Laerm;47119;49.130;9.218;2023-04-25T03:48:42;53.00;35.86;70.47;;
61249;Laerm;47119;49.130;9.218;2023-04-25T03:51:14;52.95;37.76;67.57;;
61249;Laerm;47119;49.130;9.218;2023-04-25T03:53:43;54.85;40.91;69.68;;
61249;Laerm;47119;49.130;9.218;2023-04-25T03:56:15;52.32;37.32;65.40;;
61249;Laerm;47119;49.130;9.218;2023-04-25T03:58:46;51.11;39.15;64.85;;
61249;Laerm;47119;49.130;9.218;2023-04-25T04:01:18;55.36;39.14;76.35;;
61249;Laerm;47119;49.130;9.218;2023-04-25T04:03:47;48.40;36.37;58.53;;
61249;Laerm;47119;49.130;9.218;2023-04-25T04:06:17;52.09;39.05;64.29;;
61249;Laerm;47119;49.130;9.218;2023-04-25T04:08:49;51.40;40.56;63.04;;
61249;Laerm;47119;49.130;9.218;2023-04-25T04:11:16;51.27;39.65;67.98;;
61249;Laerm;47119;49.130;9.218;2023-04-25T04:13:47;52.07;38.56;66.99;;
61249;Laerm;47119;49.130;9.218;2023-04-25T04:16:14;49.24;38.93;60.75;;
61249;Laerm;47119;49.130;9.218;2023-04-25T04:18:41;59.10;41.80;78.46;;
61249;Laerm;47119;49.130;9.218;2023-04-25T04:21:11;52.78;39.40;69.16;;
61249;Laerm;47119;49.130;9.218;2023-04-25T04:23:40;54.25;43.69;67.26;;
61249;Laerm;47119;49.130;9.218;2023-04-25T04:26:12;52.15;40.55;66.91;;
61249;Laerm;47119;49.130;9.218;2023-04-25T04:28:57;57.19;42.88;75.03;;
61249;Laerm;47119;49.130;9.218;2023-04-25T04:31:54;52.88;41.50;69.39;;
61249;Laerm;47119;49.130;9.218;2023-04-25T04:34:23;51.34;40.19;62.74;;
61249;Laerm;47119;49.130;9.218;2023-04-25T04:36:52;54.28;43.63;67.94;;
61249;Laerm;47119;49.130;9.218;2023-04-25T04:39:19;55.22;40.42;72.52;;
61249;Laerm;47119;49.130;9.218;2023-04-25T04:42:07;54.20;44.34;66.74;;
61249;Laerm;47119;49.130;9.218;2023-04-25T04:44:47;54.37;44.27;68.61;;
61249;Laerm;47119;49.130;9.218;2023-04-25T04:47:40;52.65;39.87;66.31;;
61249;Laerm;47119;49.130;9.218;2023-04-25T04:50:29;56.89;41.71;84.10;;
61249;Laerm;47119;49.130;9.218;2023-04-25T04:53:17;56.15;41.56;70.28;;
61249;Laerm;47119;49.130;9.218;2023-04-25T04:56:07;55.97;43.53;69.24;;
61249;Laerm;47119;49.130;9.218;2023-04-25T04:58:34;54.91;43.31;67.87;;
61249;Laerm;47119;49.130;9.218;2023-04-25T05:01:15;52.90;38.60;67.92;;
61249;Laerm;47119;49.130;9.218;2023-04-25T05:03:58;54.63;45.74;65.51;;
61249;Laerm;47119;49.130;9.218;2023-04-25T05:06:45;53.60;43.56;65.31;;
61249;Laerm;47119;49.130;9.218;2023-04-25T05:09:32;53.08;42.63;66.54;;
61249;Laerm;47119;49.130;9.218;2023-04-25T05:12:19;54.52;45.10;64.53;;
61249;Laerm;47119;49.130;9.218;2023-04-25T05:15:15;52.98;41.30;61.39;;
61249;Laerm;47119;49.130;9.218;2023-04-25T05:17:59;53.71;43.20;63.72;;
61249;Laerm;47119;49.130;9.218;2023-04-25T05:20:52;53.03;41.39;64.26;;
61249;Laerm;47119;49.130;9.218;2023-04-25T05:23:25;53.31;43.92;63.15;;
61249;Laerm;47119;49.130;9.218;2023-04-25T05:25:59;54.74;41.66;65.58;;
61249;Laerm;47119;49.130;9.218;2023-04-25T05:28:49;51.38;41.73;68.05;;
61249;Laerm;47119;49.130;9.218;2023-04-25T05:31:36;53.46;43.35;67.10;;
61249;Laerm;47119;49.130;9.218;2023-04-25T05:34:16;55.86;44.45;67.08;;
61249;Laerm;47119;49.130;9.218;2023-04-25T05:36:52;53.39;44.61;65.42;;
61249;Laerm;47119;49.130;9.218;2023-04-25T05:39:20;55.21;43.15;66.20;;
61249;Laerm;47119;49.130;9.218;2023-04-25T05:42:05;55.36;44.52;71.34;;
61249;Laerm;47119;49.130;9.218;2023-04-25T05:45:01;55.91;45.84;73.96;;
61249;Laerm;47119;49.130;9.218;2023-04-25T05:47:47;56.69;44.16;70.24;;
61249;Laerm;47119;49.130;9.218;2023-04-25T05:50:26;56.58;44.66;68.23;;
61249;Laerm;47119;49.130;9.218;2023-04-25T05:53:12;56.01;45.41;69.34;;
61249;Laerm;47119;49.130;9.218;2023-04-25T05:55:43;53.18;43.02;65.13;;
61249;Laerm;47119;49.130;9.218;2023-04-25T05:58:26;54.93;46.50;65.96;;
61249;Laerm;47119;49.130;9.218;2023-04-25T06:00:58;54.08;44.65;68.11;;
61249;Laerm;47119;49.130;9.218;2023-04-25T06:03:25;57.89;44.31;74.06;;
61249;Laerm;47119;49.130;9.218;2023-04-25T06:05:58;55.57;42.76;67.73;;
61249;Laerm;47119;49.130;9.218;2023-04-25T06:08:27;55.19;44.42;70.15;;
61249;Laerm;47119;49.130;9.218;2023-04-25T06:10:54;55.03;44.67;67.46;;
61249;Laerm;47119;49.130;9.218;2023-04-25T06:13:26;54.67;42.89;66.43;;
61249;Laerm;47119;49.130;9.218;2023-04-25T06:15:54;55.93;43.95;69.49;;
61249;Laerm;47119;49.130;9.218;2023-04-25T06:18:25;54.34;44.43;64.84;;
61249;Laerm;47119;49.130;9.218;2023-04-25T06:20:54;53.51;44.97;63.66;;
61249;Laerm;47119;49.130;9.218;2023-04-25T06:23:24;55.62;44.86;68.81;;
61249;Laerm;47119;49.130;9.218;2023-04-25T06:25:58;59.52;45.08;74.95;;
61249;Laerm;47119;49.130;9.218;2023-04-25T06:28:29;56.76;43.80;73.61;;
61249;Laerm;47119;49.130;9.218;2023-04-25T06:31:01;54.19;42.12;69.07;;
61249;Laerm;47119;49.130;9.218;2023-04-25T06:33:31;54.58;43.02;67.57;;
61249;Laerm;47119;49.130;9.218;2023-04-25T06:36:01;55.05;44.64;71.48;;
61249;Laerm;47119;49.130;9.218;2023-04-25T06:38:30;55.56;42.93;68.19;;
61249;Laerm;47119;49.130;9.218;2023-04-25T06:40:58;57.36;44.11;67.98;;
61249;Laerm;47119;49.130;9.218;2023-04-25T06:43:28;52.43;42.57;61.95;;
61249;Laerm;47119;49.130;9.218;2023-04-25T06:46:04;53.17;41.84;64.30;;
61249;Laerm;47119;49.130;9.218;2023-04-25T06:48:36;51.65;40.34;63.87;;
61249;Laerm;47119;49.130;9.218;2023-04-25T06:51:06;53.61;44.49;67.54;;
61249;Laerm;47119;49.130;9.218;2023-04-25T06:53:38;53.47;44.87;67.39;;
61249;Laerm;47119;49.130;9.218;2023-04-25T06:56:12;55.06;46.23;70.71;;
61249;Laerm;47119;49.130;9.218;2023-04-25T06:58:53;55.16;45.17;66.98;;
61249;Laerm;47119;49.130;9.218;2023-04-25T07:01:34;56.04;43.16;73.07;;
61249;Laerm;47119;49.130;9.218;2023-04-25T07:04:05;52.86;43.83;68.70;;
61249;Laerm;47119;49.130;9.218;2023-04-25T07:06:39;55.37;42.55;66.76;;
61249;Laerm;47119;49.130;9.218;2023-04-25T07:09:10;51.23;42.96;63.34;;
61249;Laerm;47119;49.130;9.218;2023-04-25T07:11:38;51.40;39.85;64.10;;
61249;Laerm;47119;49.130;9.218;2023-04-25T07:14:05;53.48;41.98;67.11;;
61249;Laerm;47119;49.130;9.218;2023-04-25T07:16:33;57.37;43.37;71.65;;
61249;Laerm;47119;49.130;9.218;2023-04-25T07:19:01;56.24;46.19;67.18;;
61249;Laerm;47119;49.130;9.218;2023-04-25T07:21:28;54.93;41.52;66.16;;
61249;Laerm;47119;49.130;9.218;2023-04-25T07:23:57;53.13;43.07;64.61;;
61249;Laerm;47119;49.130;9.218;2023-04-25T07:26:31;57.28;41.77;73.98;;
61249;Laerm;47119;49.130;9.218;2023-04-25T07:29:24;52.75;43.48;64.56;;
61249;Laerm;47119;49.130;9.218;2023-04-25T07:31:54;53.76;44.03;65.18;;
61249;Laerm;47119;49.130;9.218;2023-04-25T07:34:24;52.86;43.14;64.66;;
61249;Laerm;47119;49.130;9.218;2023-04-25T07:36:51;52.76;42.42;73.85;;
61249;Laerm;47119;49.130;9.218;2023-04-25T07:39:23;52.34;42.81;64.46;;
61249;Laerm;47119;49.130;9.218;2023-04-25T07:41:57;55.88;42.55;73.21;;
61249;Laerm;47119;49.130;9.218;2023-04-25T07:44:28;52.66;41.51;62.73;;
61249;Laerm;47119;49.130;9.218;2023-04-25T07:46:56;54.12;43.30;66.01;;
61249;Laerm;47119;49.130;9.218;2023-04-25T07:49:23;53.64;44.01;66.80;;
61249;Laerm;47119;49.130;9.218;2023-04-25T07:51:50;54.94;44.15;71.72;;
61249;Laerm;47119;49.130;9.218;2023-04-25T07:54:21;53.69;43.81;69.44;;
61249;Laerm;47119;49.130;9.218;2023-04-25T07:56:57;53.47;43.39;65.64;;
61249;Laerm;47119;49.130;9.218;2023-04-25T07:59:28;51.71;39.53;62.51;;
61249;Laerm;47119;49.130;9.218;2023-04-25T08:01:55;52.09;44.58;61.65;;
61249;Laerm;47119;49.130;9.218;2023-04-25T08:04:27;52.91;39.88;66.65;;
61249;Laerm;47119;49.130;9.218;2023-04-25T08:06:59;51.07;40.21;65.46;;
61249;Laerm;47119;49.130;9.218;2023-04-25T08:09:29;53.82;41.52;66.67;;
61249;Laerm;47119;49.130;9.218;2023-04-25T08:12:06;53.62;43.97;67.37;;
61249;Laerm;47119;49.130;9.218;2023-04-25T08:14:36;52.80;44.34;68.76;;
61249;Laerm;47119;49.130;9.218;2023-04-25T08:17:05;53.83;43.52;66.14;;
61249;Laerm;47119;49.130;9.218;2023-04-25T08:19:38;52.47;42.05;63.86;;
61249;Laerm;47119;49.130;9.218;2023-04-25T08:22:07;51.61;44.93;61.34;;
61249;Laerm;47119;49.130;9.218;2023-04-25T08:24:44;52.62;43.19;61.76;;
61249;Laerm;47119;49.130;9.218;2023-04-25T08:27:15;59.52;47.17;71.28;;
61249;Laerm;47119;49.130;9.218;2023-04-25T08:29:45;53.09;40.58;63.99;;
61249;Laerm;47119;49.130;9.218;2023-04-25T08:32:12;53.99;42.58;72.96;;
61249;Laerm;47119;49.130;9.218;2023-04-25T08:34:47;54.54;40.87;69.00;;
61249;Laerm;47119;49.130;9.218;2023-04-25T08:37:14;52.76;41.50;63.93;;
61249;Laerm;47119;49.130;9.218;2023-04-25T08:39:52;55.74;42.21;69.80;;
61249;Laerm;47119;49.130;9.218;2023-04-25T08:42:38;55.50;43.65;69.83;;
61249;Laerm;47119;49.130;9.218;2023-04-25T08:45:09;58.44;45.04;78.68;;
61249;Laerm;47119;49.130;9.218;2023-04-25T08:47:45;51.02;42.83;63.11;;
61249;Laerm;47119;49.130;9.218;2023-04-25T08:50:14;55.62;40.77;72.22;;
61249;Laerm;47119;49.130;9.218;2023-04-25T08:52:44;52.73;42.22;64.46;;
61249;Laerm;47119;49.130;9.218;2023-04-25T08:55:15;52.13;41.59;61.48;;
61249;Laerm;47119;49.130;9.218;2023-04-25T08:57:44;52.49;44.38;69.31;;
61249;Laerm;47119;49.130;9.218;2023-04-25T09:00:16;53.35;42.58;81.43;;
61249;Laerm;47119;49.130;9.218;2023-04-25T09:02:47;54.32;44.95;68.58;;
61249;Laerm;47119;49.130;9.218;2023-04-25T09:05:18;59.08;44.05;72.02;;
61249;Laerm;47119;49.130;9.218;2023-04-25T09:07:47;53.34;43.31;66.32;;
61249;Laerm;47119;49.130;9.218;2023-04-25T09:10:19;54.48;42.19;67.75;;
61249;Laerm;47119;49.130;9.218;2023-04-25T09:13:04;53.96;41.33;67.45;;
61249;Laerm;47119;49.130;9.218;2023-04-25T09:15:51;51.87;40.50;65.81;;
61249;Laerm;47119;49.130;9.218;2023-04-25T09:18:35;61.53;42.08;83.58;;
61249;Laerm;47119;49.130;9.218;2023-04-25T09:21:06;55.06;40.64;66.51;;
61249;Laerm;47119;49.130;9.218;2023-04-25T09:23:44;59.81;48.13;77.74;;
61249;Laerm;47119;49.130;9.218;2023-04-25T09:26:15;54.00;44.45;67.84;;
61249;Laerm;47119;49.130;9.218;2023-04-25T09:28:46;53.18;44.68;68.09;;
61249;Laerm;47119;49.130;9.218;2023-04-25T09:31:22;55.73;46.39;74.66;;
61249;Laerm;47119;49.130;9.218;2023-04-25T09:33:58;60.61;48.67;84.11;;
61249;Laerm;47119;49.130;9.218;2023-04-25T09:36:35;59.17;47.92;85.49;;
61249;Laerm;47119;49.130;9.218;2023-04-25T09:39:21;59.69;49.22;79.45;;
61249;Laerm;47119;49.130;9.218;2023-04-25T09:43:58;55.65;44.00;69.81;;
61249;Laerm;47119;49.130;9.218;2023-04-25T11:07:31;55.95;42.56;73.53;;
61249;Laerm;47119;49.130;9.218;2023-04-25T11:10:03;58.03;44.27;75.66;;
61249;Laerm;47119;49.130;9.218;2023-04-25T11:12:31;56.05;45.18;68.18;;
61249;Laerm;47119;49.130;9.218;2023-04-25T11:15:42;54.63;41.16;68.87;;
61249;Laerm;47119;49.130;9.218;2023-04-25T11:18:21;55.40;44.15;67.39;;
61249;Laerm;47119;49.130;9.218;2023-04-25T11:21:05;52.66;40.61;64.46;;
61249;Laerm;47119;49.130;9.218;2023-04-25T11:23:37;52.96;42.73;66.20;;
61249;Laerm;47119;49.130;9.218;2023-04-25T11:26:47;54.32;43.57;67.04;;
61249;Laerm;47119;49.130;9.218;2023-04-25T11:43:49;57.00;44.60;75.53;;
61249;Laerm;47119;49.130;9.218;2023-04-25T11:46:40;54.00;42.17;66.45;;
61249;Laerm;47119;49.130;9.218;2023-04-25T11:49:43;52.31;42.87;63.56;;
61249;Laerm;47119;49.130;9.218;2023-04-25T11:52:18;52.94;44.08;64.33;;
61249;Laerm;47119;49.130;9.218;2023-04-25T11:54:48;54.51;44.67;80.10;;
61249;Laerm;47119;49.130;9.218;2023-04-25T11:57:18;53.36;45.10;65.65;;
61249;Laerm;47119;49.130;9.218;2023-04-25T13:50:20;56.42;45.39;68.71;;
61249;Laerm;47119;49.130;9.218;2023-04-25T13:52:48;53.60;45.58;64.87;;
61249;Laerm;47119;49.130;9.218;2023-04-25T13:55:15;61.57;45.18;89.03;;
61249;Laerm;47119;49.130;9.218;2023-04-25T13:57:45;55.50;44.93;68.29;;
61249;Laerm;47119;49.130;9.218;2023-04-25T14:00:23;53.66;45.67;64.62;;
61249;Laerm;47119;49.130;9.218;2023-04-25T14:02:50;57.68;44.94;69.22;;
61249;Laerm;47119;49.130;9.218;2023-04-25T14:05:17;55.57;46.11;67.39;;
61249;Laerm;47119;49.130;9.218;2023-04-25T14:07:46;54.80;47.24;64.44;;
61249;Laerm;47119;49.130;9.218;2023-04-25T14:10:15;56.62;46.75;76.05;;
61249;Laerm;47119;49.130;9.218;2023-04-25T14:12:46;56.49;46.69;70.98;;
61249;Laerm;47119;49.130;9.218;2023-04-25T14:15:16;55.87;46.23;65.64;;
61249;Laerm;47119;49.130;9.218;2023-04-25T14:17:45;57.02;45.68;79.51;;
61249;Laerm;47119;49.130;9.218;2023-04-25T14:20:14;55.11;45.26;67.48;;
61249;Laerm;47119;49.130;9.218;2023-04-25T14:22:42;54.69;45.12;65.06;;
61249;Laerm;47119;49.130;9.218;2023-04-25T14:25:11;54.12;43.50;65.40;;
61249;Laerm;47119;49.130;9.218;2023-04-25T14:27:38;57.63;47.90;72.07;;
61249;Laerm;47119;49.130;9.218;2023-04-25T14:30:07;56.21;48.02;75.36;;
61249;Laerm;47119;49.130;9.218;2023-04-25T14:32:35;58.47;45.93;79.45;;
61249;Laerm;47119;49.130;9.218;2023-04-25T14:35:30;54.86;45.72;64.07;;
61249;Laerm;47119;49.130;9.218;2023-04-25T14:37:57;53.80;45.85;71.51;;
61249;Laerm;47119;49.130;9.218;2023-04-25T14:40:25;57.08;45.17;69.92;;
61249;Laerm;47119;49.130;9.218;2023-04-25T14:42:53;57.24;46.29;73.73;;
61249;Laerm;47119;49.130;9.218;2023-04-25T14:45:21;54.52;44.29;64.88;;
61249;Laerm;47119;49.130;9.218;2023-04-25T14:47:48;60.27;44.70;86.20;;
61249;Laerm;47119;49.130;9.218;2023-04-25T14:50:18;54.96;41.11;67.84;;
61249;Laerm;47119;49.130;9.218;2023-04-25T14:52:47;57.23;44.59;76.38;;
61249;Laerm;47119;49.130;9.218;2023-04-25T14:55:14;58.35;47.76;71.81;;
61249;Laerm;47119;49.130;9.218;2023-04-25T15:03:18;56.15;43.76;84.31;;
61249;Laerm;47119;49.130;9.218;2023-04-25T15:06:19;55.88;44.97;66.20;;
61249;Laerm;47119;49.130;9.218;2023-04-25T15:08:52;56.22;46.55;68.43;;
61249;Laerm;47119;49.130;9.218;2023-04-25T15:11:19;57.74;43.00;75.45;;
61249;Laerm;47119;49.130;9.218;2023-04-25T15:13:47;53.09;45.17;64.77;;
61249;Laerm;47119;49.130;9.218;2023-04-25T15:16:15;54.36;45.44;65.27;;
61249;Laerm;47119;49.130;9.218;2023-04-25T15:18:45;53.55;44.15;63.86;;
61249;Laerm;47119;49.130;9.218;2023-04-25T15:21:13;55.32;43.24;73.50;;
61249;Laerm;47119;49.130;9.218;2023-04-25T15:23:41;55.95;44.76;73.92;;
61249;Laerm;47119;49.130;9.218;2023-04-25T15:26:09;55.74;45.74;74.26;;
61249;Laerm;47119;49.130;9.218;2023-04-25T15:28:41;57.60;46.00;83.71;;
61249;Laerm;47119;49.130;9.218;2023-04-25T17:10:38;53.51;43.71;65.24;;
61249;Laerm;47119;49.130;9.218;2023-04-25T17:22:00;53.75;41.13;68.73;;
61249;Laerm;47119;49.130;9.218;2023-04-25T17:24:56;52.13;43.08;63.95;;
61249;Laerm;47119;49.130;9.218;2023-04-25T17:27:29;53.31;43.26;73.27;;
61249;Laerm;47119;49.130;9.218;2023-04-25T17:30:06;54.14;41.27;68.05;;
61249;Laerm;47119;49.130;9.218;2023-04-25T17:32:46;55.01;41.80;68.19;;
61249;Laerm;47119;49.130;9.218;2023-04-25T17:35:14;53.32;42.61;65.09;;
61249;Laerm;47119;49.130;9.218;2023-04-25T17:38:25;50.62;40.10;63.75;;
61249;Laerm;47119;49.130;9.218;2023-04-25T17:41:00;52.00;40.62;64.63;;
61249;Laerm;47119;49.130;9.218;2023-04-25T17:44:17;54.15;44.29;65.96;;
61249;Laerm;47119;49.130;9.218;2023-04-25T17:46:53;50.86;39.79;66.55;;
61249;Laerm;47119;49.130;9.218;2023-04-25T17:49:24;51.19;42.54;63.74;;
61249;Laerm;47119;49.130;9.218;2023-04-25T17:52:06;51.11;40.69;64.93;;
61249;Laerm;47119;49.130;9.218;2023-04-25T17:54:42;51.89;40.93;65.06;;
61249;Laerm;47119;49.130;9.218;2023-04-25T17:57:13;52.64;40.52;65.31;;
61249;Laerm;47119;49.130;9.218;2023-04-25T17:59:42;54.81;42.92;72.10;;
61249;Laerm;47119;49.130;9.218;2023-04-25T18:05:51;52.18;37.05;66.87;;
61249;Laerm;47119;49.130;9.218;2023-04-25T18:08:19;55.82;41.83;69.34;;
61249;Laerm;47119;49.130;9.218;2023-04-25T18:10:47;54.58;41.25;69.74;;
61249;Laerm;47119;49.130;9.218;2023-04-25T18:13:38;53.62;41.47;67.72;;
61249;Laerm;47119;49.130;9.218;2023-04-25T18:16:28;51.90;38.00;64.48;;
61249;Laerm;47119;49.130;9.218;2023-04-25T18:18:59;52.31;37.06;70.27;;
61249;Laerm;47119;49.130;9.218;2023-04-25T18:21:34;47.84;36.75;59.48;;
61249;Laerm;47119;49.130;9.218;2023-04-25T18:24:20;50.27;37.11;68.76;;
61249;Laerm;47119;49.130;9.218;2023-04-25T18:27:01;53.04;39.68;66.06;;
61249;Laerm;47119;49.130;9.218;2023-04-25T18:33:06;52.29;40.32;74.15;;
61249;Laerm;47119;49.130;9.218;2023-04-25T18:35:36;53.26;37.44;72.63;;
61249;Laerm;47119;49.130;9.218;2023-04-25T18:39:32;52.75;36.29;69.18;;
61249;Laerm;47119;49.130;9.218;2023-04-25T18:42:48;52.99;41.28;65.14;;
61249;Laerm;47119;49.130;9.218;2023-04-25T18:46:55;51.75;38.07;69.15;;
61249;Laerm;47119;49.130;9.218;2023-04-25T18:51:36;57.69;38.01;78.41;;
61249;Laerm;47119;49.130;9.218;2023-04-25T19:21:17;49.67;35.03;68.10;;
61249;Laerm;47119;49.130;9.218;2023-04-25T19:25:18;51.53;38.29;67.09;;
61249;Laerm;47119;49.130;9.218;2023-04-25T23:28:03;36.25;29.60;50.62;;
61249;Laerm;47119;49.130;9.218;2023-04-25T23:30:42;36.27;29.04;54.52;;
61249;Laerm;47119;49.130;9.218;2023-04-25T23:33:25;46.56;29.80;63.99;;
61249;Laerm;47119;49.130;9.218;2023-04-25T23:36:22;39.05;29.13;52.92;;
61249;Laerm;47119;49.130;9.218;2023-04-25T23:39:10;43.03;30.53;59.88;;
61249;Laerm;47119;49.130;9.218;2023-04-25T23:42:00;44.36;30.20;71.26;;
61249;Laerm;47119;49.130;9.218;2023-04-25T23:44:53;46.64;29.89;67.14;;
61249;Laerm;47119;49.130;9.218;2023-04-25T23:48:16;35.68;29.58;48.08;;
61249;Laerm;47119;49.130;9.218;2023-04-25T23:51:32;44.03;29.78;63.64;;
61249;Laerm;47119;49.130;9.218;2023-04-25T23:54:10;39.28;29.65;54.89;;
61249;Laerm;47119;49.130;9.218;2023-04-25T23:57:25;37.39;29.61;48.07;;
